Medallion — V7KM6 — position and weather

sailwx.info

Track history (hours):
 
Tides and Currents Weather Stations Pressure Air Temp Water Temp Dewpoint Dewpoint Depression Visibility Wind Speed Wind Dir Waves Ship Positions

Medallion

Last reported at 2016-Jun-19 15:17 UTC. Time now 2016-Jun-25 16:07 UTC.
Position N 40°50' W 073°43'.

Length 20 m; draft 7 m.

Type: Pleasure craft. MMSI: 538070246.

Date/timePositionNaut miles runAvg speedWind from/ knotsBaromVisibWave heightAir tempDewpointWater temp
2016-Jun-19 15:17N 40°50' W 073°43'  
2016-Jun-12 22:32N 40°43' W 073°58'7 7.1
2016-Jun-12 21:33N 40°37' W 074°03'43 8.6
2016-Jun-12 16:33N 39°54' W 073°59'10 9.6
2016-Jun-12 15:33N 39°45' W 074°01'10 9.7
2016-Jun-12 14:33N 39°36' W 074°06'79 9.8
2016-Jun-12 06:31N 38°24' W 074°50'102 9.8
2016-Jun-11 20:09N 36°59' W 075°59'5 8.7
2016-Jun-11 19:34N 36°58' W 076°05'13 6.5
2016-Jun-11 17:33N 36°53' W 076°20'6 6.0
2016-Jun-11 16:34N 36°47' W 076°18'4 3.4
2016-Jun-11 15:15N 36°43' W 076°15'  
Track history (hours):
 
Tides and Currents Weather Stations Pressure Air Temp Water Temp Dewpoint Dewpoint Depression Visibility Wind Speed Wind Dir Waves Ship Positions

Medallion

Last reported at 2016-Jun-19 15:17 UTC. Time now 2016-Jun-25 16:07 UTC.
Position N 40°50' W 073°43'.

Length 20 m; draft 7 m.

Type: Pleasure craft. MMSI: 538070246.

Date/timePositionNaut miles runAvg speedWind from/ knotsBaromVisibWave heightAir tempDewpointWater temp
2016-Jun-19 15:17N 40°50' W 073°43'  
2016-Jun-12 22:32N 40°43' W 073°58'7 7.1
2016-Jun-12 21:33N 40°37' W 074°03'43 8.6
2016-Jun-12 16:33N 39°54' W 073°59'10 9.6
2016-Jun-12 15:33N 39°45' W 074°01'10 9.7
2016-Jun-12 14:33N 39°36' W 074°06'79 9.8
2016-Jun-12 06:31N 38°24' W 074°50'102 9.8
2016-Jun-11 20:09N 36°59' W 075°59'5 8.7
2016-Jun-11 19:34N 36°58' W 076°05'13 6.5
2016-Jun-11 17:33N 36°53' W 076°20'6 6.0
2016-Jun-11 16:34N 36°47' W 076°18'4 3.4
2016-Jun-11 15:15N 36°43' W 076°15'  

Dump ship's entire track history